sensor_id;sensor_type;location;lat;lon;timestamp;pressure;altitude;pressure_sealevel;temperature;humidity
61898;BME280;47850;50.274;18.908;2023-03-21T00:00:01;98061.18;;;7.73;92.65
61898;BME280;47850;50.274;18.908;2023-03-21T00:02:29;98062.05;;;7.73;92.76
61898;BME280;47850;50.274;18.908;2023-03-21T00:04:57;98063.11;;;7.74;92.99
61898;BME280;47850;50.274;18.908;2023-03-21T00:07:24;98064.41;;;7.74;92.88
61898;BME280;47850;50.274;18.908;2023-03-21T00:09:52;98061.69;;;7.74;93.05
61898;BME280;47850;50.274;18.908;2023-03-21T00:12:20;98056.70;;;7.75;93.16
61898;BME280;47850;50.274;18.908;2023-03-21T00:14:48;98059.09;;;7.75;93.40
61898;BME280;47850;50.274;18.908;2023-03-21T00:17:15;98055.29;;;7.74;93.78
61898;BME280;47850;50.274;18.908;2023-03-21T00:19:43;98054.42;;;7.74;93.71
61898;BME280;47850;50.274;18.908;2023-03-21T00:22:12;98057.85;;;7.75;93.69
61898;BME280;47850;50.274;18.908;2023-03-21T00:24:40;98059.10;;;7.75;94.00
61898;BME280;47850;50.274;18.908;2023-03-21T00:27:08;98059.43;;;7.74;94.28
61898;BME280;47850;50.274;18.908;2023-03-21T00:29:36;98058.20;;;7.73;94.72
61898;BME280;47850;50.274;18.908;2023-03-21T00:32:04;98054.81;;;7.72;94.76
61898;BME280;47850;50.274;18.908;2023-03-21T00:34:31;98055.16;;;7.71;94.62
61898;BME280;47850;50.274;18.908;2023-03-21T00:37:04;98054.77;;;7.71;95.06
61898;BME280;47850;50.274;18.908;2023-03-21T00:39:34;98055.05;;;7.71;95.26
61898;BME280;47850;50.274;18.908;2023-03-21T00:42:02;98055.45;;;7.69;95.75
61898;BME280;47850;50.274;18.908;2023-03-21T00:44:30;98051.99;;;7.68;95.67
61898;BME280;47850;50.274;18.908;2023-03-21T00:47:03;98050.87;;;7.68;95.76
61898;BME280;47850;50.274;18.908;2023-03-21T00:49:32;98054.29;;;7.68;96.07
61898;BME280;47850;50.274;18.908;2023-03-21T00:52:05;98054.52;;;7.66;96.37
61898;BME280;47850;50.274;18.908;2023-03-21T00:54:34;98053.91;;;7.65;96.64
61898;BME280;47850;50.274;18.908;2023-03-21T00:57:02;98054.89;;;7.62;96.94
61898;BME280;47850;50.274;18.908;2023-03-21T00:59:31;98055.84;;;7.58;97.22
61898;BME280;47850;50.274;18.908;2023-03-21T01:01:59;98057.42;;;7.56;97.39
61898;BME280;47850;50.274;18.908;2023-03-21T01:04:27;98054.54;;;7.53;97.21
61898;BME280;47850;50.274;18.908;2023-03-21T01:06:55;98057.62;;;7.50;97.17
61898;BME280;47850;50.274;18.908;2023-03-21T01:09:22;98054.55;;;7.49;97.14
61898;BME280;47850;50.274;18.908;2023-03-21T01:11:51;98055.59;;;7.49;97.15
61898;BME280;47850;50.274;18.908;2023-03-21T01:14:19;98051.11;;;7.48;97.12
61898;BME280;47850;50.274;18.908;2023-03-21T01:16:48;98051.54;;;7.47;97.12
61898;BME280;47850;50.274;18.908;2023-03-21T01:19:17;98046.90;;;7.46;97.01
61898;BME280;47850;50.274;18.908;2023-03-21T01:21:46;98048.11;;;7.45;96.95
61898;BME280;47850;50.274;18.908;2023-03-21T01:24:13;98045.06;;;7.44;96.75
61898;BME280;47850;50.274;18.908;2023-03-21T01:26:41;98046.33;;;7.43;96.85
61898;BME280;47850;50.274;18.908;2023-03-21T01:29:09;98044.17;;;7.42;96.77
61898;BME280;47850;50.274;18.908;2023-03-21T01:31:36;98042.01;;;7.41;96.66
61898;BME280;47850;50.274;18.908;2023-03-21T01:34:04;98044.39;;;7.39;96.58
61898;BME280;47850;50.274;18.908;2023-03-21T01:36:32;98041.52;;;7.39;96.60
61898;BME280;47850;50.274;18.908;2023-03-21T01:38:59;98037.77;;;7.38;96.55
61898;BME280;47850;50.274;18.908;2023-03-21T01:41:28;98035.44;;;7.37;96.65
61898;BME280;47850;50.274;18.908;2023-03-21T01:43:56;98032.69;;;7.34;96.69
61898;BME280;47850;50.274;18.908;2023-03-21T01:46:27;98032.38;;;7.34;96.66
61898;BME280;47850;50.274;18.908;2023-03-21T01:51:53;98033.61;;;7.34;96.78
61898;BME280;47850;50.274;18.908;2023-03-21T01:54:25;98032.96;;;7.35;96.75
61898;BME280;47850;50.274;18.908;2023-03-21T01:56:55;98035.98;;;7.35;96.74
61898;BME280;47850;50.274;18.908;2023-03-21T02:01:55;98028.30;;;7.35;96.77
61898;BME280;47850;50.274;18.908;2023-03-21T02:04:23;98023.50;;;7.33;96.74
61898;BME280;47850;50.274;18.908;2023-03-21T02:06:56;98024.10;;;7.33;96.72
61898;BME280;47850;50.274;18.908;2023-03-21T02:09:26;98025.79;;;7.33;96.69
61898;BME280;47850;50.274;18.908;2023-03-21T02:11:55;98020.49;;;7.31;96.73
61898;BME280;47850;50.274;18.908;2023-03-21T02:14:23;98018.29;;;7.31;96.90
61898;BME280;47850;50.274;18.908;2023-03-21T02:16:54;98017.66;;;7.29;97.01
61898;BME280;47850;50.274;18.908;2023-03-21T02:29:36;98014.18;;;7.24;97.37
61898;BME280;47850;50.274;18.908;2023-03-21T02:34:45;98013.20;;;7.24;97.60
61898;BME280;47850;50.274;18.908;2023-03-21T02:37:24;98021.55;;;7.25;97.77
61898;BME280;47850;50.274;18.908;2023-03-21T02:40:09;98022.31;;;7.25;97.71
61898;BME280;47850;50.274;18.908;2023-03-21T02:45:16;98027.86;;;7.23;97.80
61898;BME280;47850;50.274;18.908;2023-03-21T02:47:46;98027.85;;;7.22;98.11
61898;BME280;47850;50.274;18.908;2023-03-21T02:50:20;98022.84;;;7.19;98.25
61898;BME280;47850;50.274;18.908;2023-03-21T02:52:50;98024.91;;;7.19;98.36
61898;BME280;47850;50.274;18.908;2023-03-21T02:55:23;98022.16;;;7.18;98.43
61898;BME280;47850;50.274;18.908;2023-03-21T02:57:52;98021.26;;;7.17;98.51
61898;BME280;47850;50.274;18.908;2023-03-21T03:00:23;98021.20;;;7.16;98.63
61898;BME280;47850;50.274;18.908;2023-03-21T03:02:52;98020.79;;;7.16;98.58
61898;BME280;47850;50.274;18.908;2023-03-21T03:05:22;98020.82;;;7.15;98.59
61898;BME280;47850;50.274;18.908;2023-03-21T03:08:09;98023.47;;;7.15;98.54
61898;BME280;47850;50.274;18.908;2023-03-21T03:13:28;98020.11;;;7.15;98.58
61898;BME280;47850;50.274;18.908;2023-03-21T03:25:53;98020.45;;;7.11;98.93
61898;BME280;47850;50.274;18.908;2023-03-21T03:28:24;98020.09;;;7.10;99.03
61898;BME280;47850;50.274;18.908;2023-03-21T03:30:53;98019.10;;;7.08;99.15
61898;BME280;47850;50.274;18.908;2023-03-21T03:33:22;98017.15;;;7.05;99.46
61898;BME280;47850;50.274;18.908;2023-03-21T03:35:50;98014.09;;;7.03;99.45
61898;BME280;47850;50.274;18.908;2023-03-21T03:38:20;98012.90;;;7.00;99.39
61898;BME280;47850;50.274;18.908;2023-03-21T03:40:51;98013.36;;;6.98;99.36
61898;BME280;47850;50.274;18.908;2023-03-21T03:43:22;98015.83;;;6.97;99.64
61898;BME280;47850;50.274;18.908;2023-03-21T03:45:53;98017.48;;;6.94;99.62
61898;BME280;47850;50.274;18.908;2023-03-21T03:48:23;98017.56;;;6.95;99.80
61898;BME280;47850;50.274;18.908;2023-03-21T03:51:06;98018.30;;;6.93;99.87
61898;BME280;47850;50.274;18.908;2023-03-21T03:53:37;98016.00;;;6.90;99.98
61898;BME280;47850;50.274;18.908;2023-03-21T03:56:07;98012.94;;;6.88;99.98
61898;BME280;47850;50.274;18.908;2023-03-21T03:58:38;98017.11;;;6.89;100.00
61898;BME280;47850;50.274;18.908;2023-03-21T04:01:06;98017.91;;;6.87;100.00
61898;BME280;47850;50.274;18.908;2023-03-21T04:03:34;98018.98;;;6.85;100.00
61898;BME280;47850;50.274;18.908;2023-03-21T04:06:04;98015.67;;;6.84;100.00
61898;BME280;47850;50.274;18.908;2023-03-21T04:08:32;98011.05;;;6.82;100.00
61898;BME280;47850;50.274;18.908;2023-03-21T04:11:00;98011.14;;;6.81;100.00
61898;BME280;47850;50.274;18.908;2023-03-21T04:13:29;98017.21;;;6.80;100.00
61898;BME280;47850;50.274;18.908;2023-03-21T04:15:57;98013.66;;;6.79;100.00
61898;BME280;47850;50.274;18.908;2023-03-21T04:18:24;98012.93;;;6.77;100.00
61898;BME280;47850;50.274;18.908;2023-03-21T04:20:52;98014.40;;;6.77;100.00
61898;BME280;47850;50.274;18.908;2023-03-21T04:23:20;98015.25;;;6.78;100.00
61898;BME280;47850;50.274;18.908;2023-03-21T04:25:49;98013.30;;;6.78;100.00
61898;BME280;47850;50.274;18.908;2023-03-21T04:28:17;98015.85;;;6.78;100.00
61898;BME280;47850;50.274;18.908;2023-03-21T04:30:45;98016.88;;;6.77;100.00
61898;BME280;47850;50.274;18.908;2023-03-21T04:33:12;98017.01;;;6.77;100.00
61898;BME280;47850;50.274;18.908;2023-03-21T04:35:40;98017.82;;;6.76;100.00
61898;BME280;47850;50.274;18.908;2023-03-21T04:38:08;98013.38;;;6.76;100.00
61898;BME280;47850;50.274;18.908;2023-03-21T04:40:36;98009.20;;;6.76;100.00
61898;BME280;47850;50.274;18.908;2023-03-21T04:43:04;98010.77;;;6.76;100.00
61898;BME280;47850;50.274;18.908;2023-03-21T04:45:32;98012.19;;;6.75;100.00
61898;BME280;47850;50.274;18.908;2023-03-21T04:47:59;98014.41;;;6.76;100.00
61898;BME280;47850;50.274;18.908;2023-03-21T04:50:29;98018.30;;;6.76;100.00
61898;BME280;47850;50.274;18.908;2023-03-21T04:52:58;98013.98;;;6.75;100.00
61898;BME280;47850;50.274;18.908;2023-03-21T04:55:26;98012.01;;;6.74;100.00
61898;BME280;47850;50.274;18.908;2023-03-21T04:57:55;98009.65;;;6.73;100.00
61898;BME280;47850;50.274;18.908;2023-03-21T05:00:23;98009.23;;;6.72;100.00
61898;BME280;47850;50.274;18.908;2023-03-21T05:02:52;98005.05;;;6.72;100.00
61898;BME280;47850;50.274;18.908;2023-03-21T05:05:19;98002.42;;;6.71;100.00
61898;BME280;47850;50.274;18.908;2023-03-21T05:07:47;98003.91;;;6.68;100.00
61898;BME280;47850;50.274;18.908;2023-03-21T05:10:15;98005.59;;;6.69;100.00
61898;BME280;47850;50.274;18.908;2023-03-21T05:12:43;98005.10;;;6.69;100.00
61898;BME280;47850;50.274;18.908;2023-03-21T05:15:11;98010.90;;;6.69;100.00
61898;BME280;47850;50.274;18.908;2023-03-21T05:17:39;98014.09;;;6.69;100.00
61898;BME280;47850;50.274;18.908;2023-03-21T05:20:09;98018.27;;;6.70;100.00
61898;BME280;47850;50.274;18.908;2023-03-21T05:22:37;98016.27;;;6.69;100.00
61898;BME280;47850;50.274;18.908;2023-03-21T05:25:07;98021.43;;;6.71;100.00
61898;BME280;47850;50.274;18.908;2023-03-21T05:27:35;98023.08;;;6.73;100.00
61898;BME280;47850;50.274;18.908;2023-03-21T05:30:04;98026.25;;;6.75;100.00
61898;BME280;47850;50.274;18.908;2023-03-21T05:32:33;98028.98;;;6.76;100.00
61898;BME280;47850;50.274;18.908;2023-03-21T05:35:01;98026.73;;;6.76;100.00
61898;BME280;47850;50.274;18.908;2023-03-21T05:37:28;98022.77;;;6.75;100.00
61898;BME280;47850;50.274;18.908;2023-03-21T05:39:56;98024.56;;;6.75;100.00
61898;BME280;47850;50.274;18.908;2023-03-21T05:42:24;98029.73;;;6.76;100.00
61898;BME280;47850;50.274;18.908;2023-03-21T05:44:52;98029.27;;;6.78;100.00
61898;BME280;47850;50.274;18.908;2023-03-21T05:47:19;98030.99;;;6.83;100.00
61898;BME280;47850;50.274;18.908;2023-03-21T05:49:47;98030.05;;;6.86;100.00
61898;BME280;47850;50.274;18.908;2023-03-21T05:52:16;98030.69;;;6.91;100.00
61898;BME280;47850;50.274;18.908;2023-03-21T05:54:44;98031.60;;;6.97;100.00
61898;BME280;47850;50.274;18.908;2023-03-21T05:57:12;98032.29;;;7.04;100.00
61898;BME280;47850;50.274;18.908;2023-03-21T05:59:39;98033.60;;;7.12;100.00
61898;BME280;47850;50.274;18.908;2023-03-21T06:02:07;98036.70;;;7.17;99.99
61898;BME280;47850;50.274;18.908;2023-03-21T06:04:35;98036.77;;;7.23;99.71
61898;BME280;47850;50.274;18.908;2023-03-21T06:07:02;98037.32;;;7.26;99.38
61898;BME280;47850;50.274;18.908;2023-03-21T06:09:30;98034.60;;;7.26;98.96
61898;BME280;47850;50.274;18.908;2023-03-21T06:11:58;98034.66;;;7.26;98.92
61898;BME280;47850;50.274;18.908;2023-03-21T06:14:26;98034.34;;;7.25;98.72
61898;BME280;47850;50.274;18.908;2023-03-21T06:16:53;98032.71;;;7.23;98.67
61898;BME280;47850;50.274;18.908;2023-03-21T06:19:21;98038.26;;;7.25;98.66
61898;BME280;47850;50.274;18.908;2023-03-21T06:21:49;98041.66;;;7.29;98.52
61898;BME280;47850;50.274;18.908;2023-03-21T06:24:16;98043.36;;;7.33;98.32
61898;BME280;47850;50.274;18.908;2023-03-21T06:26:44;98042.39;;;7.39;98.16
61898;BME280;47850;50.274;18.908;2023-03-21T06:29:12;98047.27;;;7.42;97.80
61898;BME280;47850;50.274;18.908;2023-03-21T06:31:40;98047.08;;;7.44;97.48
61898;BME280;47850;50.274;18.908;2023-03-21T06:34:08;98048.88;;;7.44;97.03
61898;BME280;47850;50.274;18.908;2023-03-21T06:36:38;98051.11;;;7.42;96.73
61898;BME280;47850;50.274;18.908;2023-03-21T06:39:05;98050.71;;;7.41;96.81
61898;BME280;47850;50.274;18.908;2023-03-21T06:41:34;98059.20;;;7.39;96.92
61898;BME280;47850;50.274;18.908;2023-03-21T06:44:02;98060.34;;;7.38;97.00
61898;BME280;47850;50.274;18.908;2023-03-21T06:46:30;98061.87;;;7.41;96.99
61898;BME280;47850;50.274;18.908;2023-03-21T06:48:58;98063.46;;;7.43;96.77
61898;BME280;47850;50.274;18.908;2023-03-21T06:51:25;98065.48;;;7.45;96.56
61898;BME280;47850;50.274;18.908;2023-03-21T06:53:53;98066.39;;;7.45;96.38
61898;BME280;47850;50.274;18.908;2023-03-21T06:56:21;98070.05;;;7.47;96.46
61898;BME280;47850;50.274;18.908;2023-03-21T06:58:48;98069.94;;;7.48;96.31
61898;BME280;47850;50.274;18.908;2023-03-21T07:01:16;98074.14;;;7.44;96.37
61898;BME280;47850;50.274;18.908;2023-03-21T07:03:44;98073.52;;;7.42;96.38
61898;BME280;47850;50.274;18.908;2023-03-21T07:06:12;98079.04;;;7.46;96.51
61898;BME280;47850;50.274;18.908;2023-03-21T07:08:40;98078.43;;;7.49;96.39
61898;BME280;47850;50.274;18.908;2023-03-21T07:11:08;98081.25;;;7.52;96.50
61898;BME280;47850;50.274;18.908;2023-03-21T07:13:36;98083.73;;;7.56;96.29
61898;BME280;47850;50.274;18.908;2023-03-21T07:16:04;98089.84;;;7.57;96.10
61898;BME280;47850;50.274;18.908;2023-03-21T07:18:31;98089.26;;;7.59;96.02
61898;BME280;47850;50.274;18.908;2023-03-21T07:20:59;98092.61;;;7.62;95.88
61898;BME280;47850;50.274;18.908;2023-03-21T07:23:27;98089.43;;;7.69;95.69
61898;BME280;47850;50.274;18.908;2023-03-21T07:25:55;98088.36;;;7.77;95.41
61898;BME280;47850;50.274;18.908;2023-03-21T07:28:23;98084.73;;;7.82;94.95
61898;BME280;47850;50.274;18.908;2023-03-21T07:30:52;98084.33;;;7.91;94.78
61898;BME280;47850;50.274;18.908;2023-03-21T07:33:21;98085.05;;;7.97;94.69
61898;BME280;47850;50.274;18.908;2023-03-21T07:35:50;98085.48;;;8.04;94.43
61898;BME280;47850;50.274;18.908;2023-03-21T07:38:18;98086.09;;;8.10;94.38
61898;BME280;47850;50.274;18.908;2023-03-21T07:40:46;98083.59;;;8.16;94.28
61898;BME280;47850;50.274;18.908;2023-03-21T07:43:15;98082.77;;;8.24;94.01
61898;BME280;47850;50.274;18.908;2023-03-21T07:45:43;98086.52;;;8.30;93.53
61898;BME280;47850;50.274;18.908;2023-03-21T07:48:11;98081.17;;;8.36;93.24
61898;BME280;47850;50.274;18.908;2023-03-21T07:50:39;98085.92;;;8.45;93.45
61898;BME280;47850;50.274;18.908;2023-03-21T07:53:07;98088.96;;;8.56;93.37
61898;BME280;47850;50.274;18.908;2023-03-21T07:55:36;98088.05;;;8.65;93.13
61898;BME280;47850;50.274;18.908;2023-03-21T07:58:03;98097.44;;;8.72;92.83
61898;BME280;47850;50.274;18.908;2023-03-21T08:00:32;98094.55;;;8.76;92.49
61898;BME280;47850;50.274;18.908;2023-03-21T08:02:59;98097.64;;;8.75;91.53
61898;BME280;47850;50.274;18.908;2023-03-21T08:05:29;98095.10;;;8.72;91.48
61898;BME280;47850;50.274;18.908;2023-03-21T08:07:57;98094.41;;;8.71;91.43
61898;BME280;47850;50.274;18.908;2023-03-21T08:10:25;98098.14;;;8.72;91.44
61898;BME280;47850;50.274;18.908;2023-03-21T08:12:52;98095.84;;;8.77;91.29
61898;BME280;47850;50.274;18.908;2023-03-21T08:15:20;98100.20;;;8.82;91.10
61898;BME280;47850;50.274;18.908;2023-03-21T08:17:48;98103.05;;;8.88;90.93
61898;BME280;47850;50.274;18.908;2023-03-21T08:20:17;98103.45;;;8.87;90.03
61898;BME280;47850;50.274;18.908;2023-03-21T08:22:48;98106.24;;;8.84;89.61
61898;BME280;47850;50.274;18.908;2023-03-21T08:25:17;98107.20;;;8.87;89.64
61898;BME280;47850;50.274;18.908;2023-03-21T08:27:46;98106.75;;;8.94;89.81
61898;BME280;47850;50.274;18.908;2023-03-21T08:30:15;98107.23;;;8.95;89.27
61898;BME280;47850;50.274;18.908;2023-03-21T08:32:43;98108.52;;;8.98;89.43
61898;BME280;47850;50.274;18.908;2023-03-21T08:35:12;98105.32;;;9.03;89.47
61898;BME280;47850;50.274;18.908;2023-03-21T08:37:42;98101.82;;;9.11;89.05
61898;BME280;47850;50.274;18.908;2023-03-21T08:40:11;98105.69;;;9.21;88.84
61898;BME280;47850;50.274;18.908;2023-03-21T08:42:39;98107.37;;;9.32;88.28
61898;BME280;47850;50.274;18.908;2023-03-21T08:45:08;98109.79;;;9.40;87.51
61898;BME280;47850;50.274;18.908;2023-03-21T08:47:36;98110.00;;;9.46;86.82
61898;BME280;47850;50.274;18.908;2023-03-21T08:50:05;98111.73;;;9.51;85.44
61898;BME280;47850;50.274;18.908;2023-03-21T08:52:33;98114.14;;;9.54;84.51
61898;BME280;47850;50.274;18.908;2023-03-21T08:55:01;98119.48;;;9.48;83.89
61898;BME280;47850;50.274;18.908;2023-03-21T08:57:30;98119.63;;;9.44;84.19
61898;BME280;47850;50.274;18.908;2023-03-21T08:59:57;98118.40;;;9.48;84.64
61898;BME280;47850;50.274;18.908;2023-03-21T09:02:25;98114.50;;;9.51;84.20
61898;BME280;47850;50.274;18.908;2023-03-21T09:04:53;98115.50;;;9.52;83.74
61898;BME280;47850;50.274;18.908;2023-03-21T09:07:21;98119.15;;;9.58;83.24
61898;BME280;47850;50.274;18.908;2023-03-21T09:09:52;98119.79;;;9.73;83.25
61898;BME280;47850;50.274;18.908;2023-03-21T09:12:20;98118.46;;;9.80;82.51
61898;BME280;47850;50.274;18.908;2023-03-21T09:14:48;98122.16;;;9.85;82.50
61898;BME280;47850;50.274;18.908;2023-03-21T09:17:16;98125.98;;;9.89;81.70
61898;BME280;47850;50.274;18.908;2023-03-21T09:19:44;98125.34;;;9.83;80.88
61898;BME280;47850;50.274;18.908;2023-03-21T09:22:13;98129.71;;;9.72;81.48
61898;BME280;47850;50.274;18.908;2023-03-21T09:24:43;98132.67;;;9.60;81.07
61898;BME280;47850;50.274;18.908;2023-03-21T09:27:14;98136.80;;;9.45;81.17
61898;BME280;47850;50.274;18.908;2023-03-21T09:29:44;98139.80;;;9.37;81.53
61898;BME280;47850;50.274;18.908;2023-03-21T09:32:12;98139.55;;;9.34;81.77
61898;BME280;47850;50.274;18.908;2023-03-21T09:34:40;98140.40;;;9.32;81.85
61898;BME280;47850;50.274;18.908;2023-03-21T09:37:08;98141.63;;;9.27;81.47
61898;BME280;47850;50.274;18.908;2023-03-21T09:39:39;98142.69;;;9.26;81.90
61898;BME280;47850;50.274;18.908;2023-03-21T09:42:26;98142.65;;;9.27;81.94
61898;BME280;47850;50.274;18.908;2023-03-21T09:47:48;98150.86;;;9.30;81.90
61898;BME280;47850;50.274;18.908;2023-03-21T09:50:21;98154.15;;;9.29;81.00
61898;BME280;47850;50.274;18.908;2023-03-21T09:55:25;98153.52;;;9.30;79.99
61898;BME280;47850;50.274;18.908;2023-03-21T10:00:31;98147.19;;;9.62;80.13
61898;BME280;47850;50.274;18.908;2023-03-21T10:03:03;98146.95;;;9.81;80.06
61898;BME280;47850;50.274;18.908;2023-03-21T10:05:33;98142.55;;;9.97;79.29
61898;BME280;47850;50.274;18.908;2023-03-21T10:08:17;98148.92;;;10.06;77.76
61898;BME280;47850;50.274;18.908;2023-03-21T10:10:52;98146.05;;;10.12;75.81
61898;BME280;47850;50.274;18.908;2023-03-21T10:13:23;98145.77;;;10.14;75.11
61898;BME280;47850;50.274;18.908;2023-03-21T10:15:59;98144.86;;;10.13;75.33
61898;BME280;47850;50.274;18.908;2023-03-21T10:18:28;98142.36;;;10.14;74.95
61898;BME280;47850;50.274;18.908;2023-03-21T10:20:57;98142.52;;;10.21;75.08
61898;BME280;47850;50.274;18.908;2023-03-21T10:23:26;98142.84;;;10.26;74.47
61898;BME280;47850;50.274;18.908;2023-03-21T10:25:55;98145.73;;;10.28;74.53
61898;BME280;47850;50.274;18.908;2023-03-21T10:28:26;98143.41;;;10.33;74.33
61898;BME280;47850;50.274;18.908;2023-03-21T10:30:59;98142.58;;;10.47;74.74
61898;BME280;47850;50.274;18.908;2023-03-21T10:33:29;98146.98;;;10.64;74.38
61898;BME280;47850;50.274;18.908;2023-03-21T10:35:59;98147.45;;;10.77;72.55
61898;BME280;47850;50.274;18.908;2023-03-21T10:38:28;98146.44;;;10.92;72.75
61898;BME280;47850;50.274;18.908;2023-03-21T10:40:57;98145.98;;;11.08;71.20
61898;BME280;47850;50.274;18.908;2023-03-21T10:45:53;98151.02;;;11.08;71.17
61898;BME280;47850;50.274;18.908;2023-03-21T10:48:21;98148.84;;;11.00;70.06
61898;BME280;47850;50.274;18.908;2023-03-21T10:50:50;98151.16;;;10.91;70.32
61898;BME280;47850;50.274;18.908;2023-03-21T10:53:26;98148.33;;;10.81;70.49
61898;BME280;47850;50.274;18.908;2023-03-21T10:55:56;98147.23;;;10.74;70.90
61898;BME280;47850;50.274;18.908;2023-03-21T10:58:26;98146.48;;;10.75;71.15
61898;BME280;47850;50.274;18.908;2023-03-21T11:00:56;98142.17;;;10.82;71.43
61898;BME280;47850;50.274;18.908;2023-03-21T11:03:42;98145.77;;;10.91;71.15
61898;BME280;47850;50.274;18.908;2023-03-21T11:06:14;98144.52;;;10.97;70.73
61898;BME280;47850;50.274;18.908;2023-03-21T11:08:48;98143.95;;;11.05;70.11
61898;BME280;47850;50.274;18.908;2023-03-21T11:11:27;98146.56;;;11.09;69.91
61898;BME280;47850;50.274;18.908;2023-03-21T11:13:57;98144.33;;;11.17;69.90
61898;BME280;47850;50.274;18.908;2023-03-21T11:19:01;98146.18;;;11.75;67.51
61898;BME280;47850;50.274;18.908;2023-03-21T11:21:34;98142.01;;;12.00;67.18
61898;BME280;47850;50.274;18.908;2023-03-21T11:24:02;98142.23;;;12.24;66.42
61898;BME280;47850;50.274;18.908;2023-03-21T11:26:32;98143.23;;;12.40;66.50
61898;BME280;47850;50.274;18.908;2023-03-21T11:29:25;98143.47;;;12.48;65.90
61898;BME280;47850;50.274;18.908;2023-03-21T11:31:56;98144.92;;;12.39;64.64
61898;BME280;47850;50.274;18.908;2023-03-21T11:34:27;98137.70;;;12.24;65.26
61898;BME280;47850;50.274;18.908;2023-03-21T11:36:58;98138.48;;;12.12;65.18
61898;BME280;47850;50.274;18.908;2023-03-21T11:39:30;98136.88;;;11.95;64.64
61898;BME280;47850;50.274;18.908;2023-03-21T11:41:58;98138.27;;;11.82;64.97
61898;BME280;47850;50.274;18.908;2023-03-21T11:44:27;98138.23;;;11.69;65.14
61898;BME280;47850;50.274;18.908;2023-03-21T11:46:55;98137.47;;;11.50;65.70
61898;BME280;47850;50.274;18.908;2023-03-21T11:49:23;98137.17;;;11.33;66.72
61898;BME280;47850;50.274;18.908;2023-03-21T11:56:55;98130.29;;;10.97;66.47
61898;BME280;47850;50.274;18.908;2023-03-21T12:04:41;98130.84;;;10.98;66.35
61898;BME280;47850;50.274;18.908;2023-03-21T12:09:43;98121.27;;;10.99;66.19
61898;BME280;47850;50.274;18.908;2023-03-21T12:19:56;98117.04;;;11.19;66.50
61898;BME280;47850;50.274;18.908;2023-03-21T12:22:32;98119.88;;;11.21;66.11
61898;BME280;47850;50.274;18.908;2023-03-21T12:25:08;98113.10;;;11.23;65.74
61898;BME280;47850;50.274;18.908;2023-03-21T12:27:44;98115.53;;;11.26;65.49
61898;BME280;47850;50.274;18.908;2023-03-21T12:38:22;98108.02;;;11.47;65.90
61898;BME280;47850;50.274;18.908;2023-03-21T12:43:40;98106.81;;;11.51;66.24
61898;BME280;47850;50.274;18.908;2023-03-21T12:46:17;98102.38;;;11.42;65.74
61898;BME280;47850;50.274;18.908;2023-03-21T12:48:50;98106.96;;;11.14;64.79
61898;BME280;47850;50.274;18.908;2023-03-21T12:51:22;98098.64;;;10.97;65.93
61898;BME280;47850;50.274;18.908;2023-03-21T12:59:05;98087.63;;;11.26;65.99
61898;BME280;47850;50.274;18.908;2023-03-21T13:01:35;98087.81;;;11.44;65.27
61898;BME280;47850;50.274;18.908;2023-03-21T13:04:07;98083.47;;;11.56;65.52
61898;BME280;47850;50.274;18.908;2023-03-21T13:06:40;98082.42;;;11.61;65.43
61898;BME280;47850;50.274;18.908;2023-03-21T13:09:19;98079.38;;;11.55;65.51
61898;BME280;47850;50.274;18.908;2023-03-21T13:11:49;98081.66;;;11.46;66.10
61898;BME280;47850;50.274;18.908;2023-03-21T13:14:25;98080.54;;;11.36;66.38
61898;BME280;47850;50.274;18.908;2023-03-21T13:16:57;98080.89;;;11.32;66.22
61898;BME280;47850;50.274;18.908;2023-03-21T13:27:02;98079.84;;;11.33;67.07
61898;BME280;47850;50.274;18.908;2023-03-21T13:29:40;98078.15;;;11.27;67.33
61898;BME280;47850;50.274;18.908;2023-03-21T13:32:16;98075.96;;;11.17;67.78
61898;BME280;47850;50.274;18.908;2023-03-21T13:34:52;98070.40;;;11.17;68.03
61898;BME280;47850;50.274;18.908;2023-03-21T13:37:20;98077.81;;;11.32;68.21
61898;BME280;47850;50.274;18.908;2023-03-21T13:39:48;98072.02;;;11.53;67.29
61898;BME280;47850;50.274;18.908;2023-03-21T13:42:17;98068.66;;;11.68;67.33
61898;BME280;47850;50.274;18.908;2023-03-21T13:44:58;98071.02;;;11.92;66.92
61898;BME280;47850;50.274;18.908;2023-03-21T13:55:39;98065.62;;;11.74;65.79
61898;BME280;47850;50.274;18.908;2023-03-21T13:58:30;98063.88;;;11.70;65.82
61898;BME280;47850;50.274;18.908;2023-03-21T14:01:10;98060.31;;;11.76;65.91
61898;BME280;47850;50.274;18.908;2023-03-21T14:03:39;98064.20;;;11.80;65.20
61898;BME280;47850;50.274;18.908;2023-03-21T14:06:07;98059.98;;;11.81;65.27
61898;BME280;47850;50.274;18.908;2023-03-21T14:08:37;98056.20;;;11.99;65.60
61898;BME280;47850;50.274;18.908;2023-03-21T14:11:09;98053.23;;;12.08;65.31
61898;BME280;47850;50.274;18.908;2023-03-21T14:13:39;98055.61;;;12.02;64.95
61898;BME280;47850;50.274;18.908;2023-03-21T14:16:11;98051.59;;;11.90;65.26
61898;BME280;47850;50.274;18.908;2023-03-21T14:18:42;98048.73;;;11.81;65.38
61898;BME280;47850;50.274;18.908;2023-03-21T14:21:18;98049.19;;;11.75;65.64
61898;BME280;47850;50.274;18.908;2023-03-21T14:23:50;98048.84;;;11.68;65.85
61898;BME280;47850;50.274;18.908;2023-03-21T14:26:21;98043.71;;;11.60;65.80
61898;BME280;47850;50.274;18.908;2023-03-21T14:28:50;98045.23;;;11.52;65.52
61898;BME280;47850;50.274;18.908;2023-03-21T14:31:18;98044.14;;;11.34;65.54
61898;BME280;47850;50.274;18.908;2023-03-21T14:33:50;98046.98;;;11.24;66.21
61898;BME280;47850;50.274;18.908;2023-03-21T14:36:24;98049.65;;;11.11;66.70
61898;BME280;47850;50.274;18.908;2023-03-21T14:38:54;98045.02;;;11.01;67.15
61898;BME280;47850;50.274;18.908;2023-03-21T14:41:24;98042.73;;;10.91;67.40
61898;BME280;47850;50.274;18.908;2023-03-21T14:47:03;98042.83;;;10.67;68.08
61898;BME280;47850;50.274;18.908;2023-03-21T14:49:35;98040.14;;;10.56;68.48